sensor_id;sensor_type;location;lat;lon;timestamp;P1;P2;P0
74880;PMS5003;63427;49.654;6.596;2022-10-23T00:01:12;11;10;
74880;PMS5003;63427;49.654;6.596;2022-10-23T00:03:35;10;10;
74880;PMS5003;63427;49.654;6.596;2022-10-23T00:06:02;9;9;
74880;PMS5003;63427;49.654;6.596;2022-10-23T00:08:25;9;9;
74880;PMS5003;63427;49.654;6.596;2022-10-23T00:10:51;9;9;
74880;PMS5003;63427;49.654;6.596;2022-10-23T00:13:16;7;7;
74880;PMS5003;63427;49.654;6.596;2022-10-23T00:15:42;8;8;
74880;PMS5003;63427;49.654;6.596;2022-10-23T00:18:07;10;9;
74880;PMS5003;63427;49.654;6.596;2022-10-23T00:20:33;8;8;
74880;PMS5003;63427;49.654;6.596;2022-10-23T00:22:58;9;8;
74880;PMS5003;63427;49.654;6.596;2022-10-23T00:25:23;10;10;
74880;PMS5003;63427;49.654;6.596;2022-10-23T00:27:49;10;9;
74880;PMS5003;63427;49.654;6.596;2022-10-23T00:30:14;8;8;
74880;PMS5003;63427;49.654;6.596;2022-10-23T00:32:39;9;9;
74880;PMS5003;63427;49.654;6.596;2022-10-23T00:35:05;10;10;
74880;PMS5003;63427;49.654;6.596;2022-10-23T00:37:30;8;7;
74880;PMS5003;63427;49.654;6.596;2022-10-23T00:39:56;9;9;
74880;PMS5003;63427;49.654;6.596;2022-10-23T00:42:21;9;9;
74880;PMS5003;63427;49.654;6.596;2022-10-23T00:47:12;11;11;
74880;PMS5003;63427;49.654;6.596;2022-10-23T00:49:37;8;8;
74880;PMS5003;63427;49.654;6.596;2022-10-23T00:52:04;9;9;
74880;PMS5003;63427;49.654;6.596;2022-10-23T00:54:28;9;9;
74880;PMS5003;63427;49.654;6.596;2022-10-23T00:56:55;10;10;
74880;PMS5003;63427;49.654;6.596;2022-10-23T00:59:19;14;13;
74880;PMS5003;63427;49.654;6.596;2022-10-23T01:01:44;12;12;
74880;PMS5003;63427;49.654;6.596;2022-10-23T01:04:09;11;11;
74880;PMS5003;63427;49.654;6.596;2022-10-23T01:06:35;12;11;
74880;PMS5003;63427;49.654;6.596;2022-10-23T01:09:02;10;9;
74880;PMS5003;63427;49.654;6.596;2022-10-23T01:11:26;10;9;
74880;PMS5003;63427;49.654;6.596;2022-10-23T01:13:53;11;11;
74880;PMS5003;63427;49.654;6.596;2022-10-23T01:16:17;12;12;
74880;PMS5003;63427;49.654;6.596;2022-10-23T01:18:43;10;10;
74880;PMS5003;63427;49.654;6.596;2022-10-23T01:21:09;12;12;
74880;PMS5003;63427;49.654;6.596;2022-10-23T01:23:38;11;10;
74880;PMS5003;63427;49.654;6.596;2022-10-23T01:26:01;10;9;
74880;PMS5003;63427;49.654;6.596;2022-10-23T01:28:24;11;11;
74880;PMS5003;63427;49.654;6.596;2022-10-23T01:30:49;12;10;
74880;PMS5003;63427;49.654;6.596;2022-10-23T01:33:14;10;9;
74880;PMS5003;63427;49.654;6.596;2022-10-23T01:35:40;10;10;
74880;PMS5003;63427;49.654;6.596;2022-10-23T01:38:05;10;10;
74880;PMS5003;63427;49.654;6.596;2022-10-23T01:40:31;8;8;
74880;PMS5003;63427;49.654;6.596;2022-10-23T01:42:56;10;10;
74880;PMS5003;63427;49.654;6.596;2022-10-23T01:45:22;9;9;
74880;PMS5003;63427;49.654;6.596;2022-10-23T01:47:46;9;9;
74880;PMS5003;63427;49.654;6.596;2022-10-23T01:50:12;8;8;
74880;PMS5003;63427;49.654;6.596;2022-10-23T01:52:37;11;11;
74880;PMS5003;63427;49.654;6.596;2022-10-23T01:55:03;10;10;
74880;PMS5003;63427;49.654;6.596;2022-10-23T01:57:28;11;10;
74880;PMS5003;63427;49.654;6.596;2022-10-23T01:59:54;12;11;
74880;PMS5003;63427;49.654;6.596;2022-10-23T02:02:19;7;7;
74880;PMS5003;63427;49.654;6.596;2022-10-23T02:04:45;8;8;
74880;PMS5003;63427;49.654;6.596;2022-10-23T02:07:09;11;11;
74880;PMS5003;63427;49.654;6.596;2022-10-23T02:09:35;10;10;
74880;PMS5003;63427;49.654;6.596;2022-10-23T02:12:01;10;10;
74880;PMS5003;63427;49.654;6.596;2022-10-23T02:14:30;10;10;
74880;PMS5003;63427;49.654;6.596;2022-10-23T02:16:51;7;7;
74880;PMS5003;63427;49.654;6.596;2022-10-23T02:19:18;8;8;
74880;PMS5003;63427;49.654;6.596;2022-10-23T02:21:45;8;8;
74880;PMS5003;63427;49.654;6.596;2022-10-23T02:24:08;10;10;
74880;PMS5003;63427;49.654;6.596;2022-10-23T02:26:33;10;10;
74880;PMS5003;63427;49.654;6.596;2022-10-23T02:28:58;9;9;
74880;PMS5003;63427;49.654;6.596;2022-10-23T02:31:23;8;8;
74880;PMS5003;63427;49.654;6.596;2022-10-23T02:33:48;10;10;
74880;PMS5003;63427;49.654;6.596;2022-10-23T02:36:13;8;8;
74880;PMS5003;63427;49.654;6.596;2022-10-23T02:38:40;8;8;
74880;PMS5003;63427;49.654;6.596;2022-10-23T02:41:08;9;9;
74880;PMS5003;63427;49.654;6.596;2022-10-23T02:43:31;8;8;
74880;PMS5003;63427;49.654;6.596;2022-10-23T02:45:58;8;8;
74880;PMS5003;63427;49.654;6.596;2022-10-23T02:48:22;8;8;
74880;PMS5003;63427;49.654;6.596;2022-10-23T02:50:48;13;11;
74880;PMS5003;63427;49.654;6.596;2022-10-23T02:53:12;9;9;
74880;PMS5003;63427;49.654;6.596;2022-10-23T02:55:41;8;8;
74880;PMS5003;63427;49.654;6.596;2022-10-23T02:58:05;7;7;
74880;PMS5003;63427;49.654;6.596;2022-10-23T03:00:27;6;6;
74880;PMS5003;63427;49.654;6.596;2022-10-23T03:02:54;7;7;
74880;PMS5003;63427;49.654;6.596;2022-10-23T03:05:19;9;9;
74880;PMS5003;63427;49.654;6.596;2022-10-23T03:07:44;8;8;
74880;PMS5003;63427;49.654;6.596;2022-10-23T03:10:09;9;9;
74880;PMS5003;63427;49.654;6.596;2022-10-23T03:12:34;10;10;
74880;PMS5003;63427;49.654;6.596;2022-10-23T03:14:59;7;7;
74880;PMS5003;63427;49.654;6.596;2022-10-23T03:17:25;8;8;
74880;PMS5003;63427;49.654;6.596;2022-10-23T03:19:50;7;7;
74880;PMS5003;63427;49.654;6.596;2022-10-23T03:22:16;8;8;
74880;PMS5003;63427;49.654;6.596;2022-10-23T03:24:41;8;7;
74880;PMS5003;63427;49.654;6.596;2022-10-23T03:27:06;8;8;
74880;PMS5003;63427;49.654;6.596;2022-10-23T03:29:32;7;7;
74880;PMS5003;63427;49.654;6.596;2022-10-23T03:31:57;7;7;
74880;PMS5003;63427;49.654;6.596;2022-10-23T03:34:23;6;6;
74880;PMS5003;63427;49.654;6.596;2022-10-23T03:36:48;5;5;
74880;PMS5003;63427;49.654;6.596;2022-10-23T03:39:14;6;6;
74880;PMS5003;63427;49.654;6.596;2022-10-23T03:41:39;5;5;
74880;PMS5003;63427;49.654;6.596;2022-10-23T03:44:04;8;7;
74880;PMS5003;63427;49.654;6.596;2022-10-23T03:46:30;7;7;
74880;PMS5003;63427;49.654;6.596;2022-10-23T03:48:55;8;8;
74880;PMS5003;63427;49.654;6.596;2022-10-23T03:51:20;7;7;
74880;PMS5003;63427;49.654;6.596;2022-10-23T03:53:46;7;7;
74880;PMS5003;63427;49.654;6.596;2022-10-23T03:56:11;8;7;
74880;PMS5003;63427;49.654;6.596;2022-10-23T03:58:36;8;8;
74880;PMS5003;63427;49.654;6.596;2022-10-23T04:01:01;5;5;
74880;PMS5003;63427;49.654;6.596;2022-10-23T04:03:27;6;6;
74880;PMS5003;63427;49.654;6.596;2022-10-23T04:05:52;5;5;
74880;PMS5003;63427;49.654;6.596;2022-10-23T04:08:18;7;7;
74880;PMS5003;63427;49.654;6.596;2022-10-23T04:10:44;8;8;
74880;PMS5003;63427;49.654;6.596;2022-10-23T04:13:09;8;8;
74880;PMS5003;63427;49.654;6.596;2022-10-23T04:15:35;7;7;
74880;PMS5003;63427;49.654;6.596;2022-10-23T04:18:00;5;5;
74880;PMS5003;63427;49.654;6.596;2022-10-23T04:20:26;7;6;
74880;PMS5003;63427;49.654;6.596;2022-10-23T04:22:51;7;7;
74880;PMS5003;63427;49.654;6.596;2022-10-23T04:25:16;6;6;
74880;PMS5003;63427;49.654;6.596;2022-10-23T04:27:42;7;7;
74880;PMS5003;63427;49.654;6.596;2022-10-23T04:30:08;9;9;
74880;PMS5003;63427;49.654;6.596;2022-10-23T04:32:33;7;7;
74880;PMS5003;63427;49.654;6.596;2022-10-23T04:34:58;9;8;
74880;PMS5003;63427;49.654;6.596;2022-10-23T04:37:23;7;6;
74880;PMS5003;63427;49.654;6.596;2022-10-23T04:39:49;6;6;
74880;PMS5003;63427;49.654;6.596;2022-10-23T04:42:14;6;6;
74880;PMS5003;63427;49.654;6.596;2022-10-23T04:44:39;6;6;
74880;PMS5003;63427;49.654;6.596;2022-10-23T04:47:05;6;6;
74880;PMS5003;63427;49.654;6.596;2022-10-23T04:49:30;9;8;
74880;PMS5003;63427;49.654;6.596;2022-10-23T04:51:56;7;6;
74880;PMS5003;63427;49.654;6.596;2022-10-23T04:54:21;6;6;
74880;PMS5003;63427;49.654;6.596;2022-10-23T04:56:46;5;5;
74880;PMS5003;63427;49.654;6.596;2022-10-23T04:59:12;6;6;
74880;PMS5003;63427;49.654;6.596;2022-10-23T05:01:37;5;5;
74880;PMS5003;63427;49.654;6.596;2022-10-23T05:04:03;6;6;
74880;PMS5003;63427;49.654;6.596;2022-10-23T05:06:28;5;5;
74880;PMS5003;63427;49.654;6.596;2022-10-23T05:08:53;4;4;
74880;PMS5003;63427;49.654;6.596;2022-10-23T05:11:19;6;6;
74880;PMS5003;63427;49.654;6.596;2022-10-23T05:13:44;5;5;
74880;PMS5003;63427;49.654;6.596;2022-10-23T05:16:10;5;5;
74880;PMS5003;63427;49.654;6.596;2022-10-23T05:18:36;5;5;
74880;PMS5003;63427;49.654;6.596;2022-10-23T05:21:01;13;13;
74880;PMS5003;63427;49.654;6.596;2022-10-23T05:23:26;13;13;
74880;PMS5003;63427;49.654;6.596;2022-10-23T05:25:51;8;8;
74880;PMS5003;63427;49.654;6.596;2022-10-23T05:28:16;5;5;
74880;PMS5003;63427;49.654;6.596;2022-10-23T05:30:42;4;4;
74880;PMS5003;63427;49.654;6.596;2022-10-23T05:33:07;6;6;
74880;PMS5003;63427;49.654;6.596;2022-10-23T05:35:33;9;8;
74880;PMS5003;63427;49.654;6.596;2022-10-23T05:37:58;6;6;
74880;PMS5003;63427;49.654;6.596;2022-10-23T05:40:24;27;27;
74880;PMS5003;63427;49.654;6.596;2022-10-23T05:42:49;19;18;
74880;PMS5003;63427;49.654;6.596;2022-10-23T05:45:15;7;6;
74880;PMS5003;63427;49.654;6.596;2022-10-23T05:47:42;5;5;
74880;PMS5003;63427;49.654;6.596;2022-10-23T05:50:06;4;4;
74880;PMS5003;63427;49.654;6.596;2022-10-23T05:52:31;6;6;
74880;PMS5003;63427;49.654;6.596;2022-10-23T05:54:56;7;7;
74880;PMS5003;63427;49.654;6.596;2022-10-23T05:57:22;5;5;
74880;PMS5003;63427;49.654;6.596;2022-10-23T05:59:47;6;6;
74880;PMS5003;63427;49.654;6.596;2022-10-23T06:02:12;6;5;
74880;PMS5003;63427;49.654;6.596;2022-10-23T06:04:38;6;6;
74880;PMS5003;63427;49.654;6.596;2022-10-23T06:07:03;5;5;
74880;PMS5003;63427;49.654;6.596;2022-10-23T06:09:29;5;5;
74880;PMS5003;63427;49.654;6.596;2022-10-23T06:11:54;6;5;
74880;PMS5003;63427;49.654;6.596;2022-10-23T06:16:45;8;7;
74880;PMS5003;63427;49.654;6.596;2022-10-23T06:19:10;6;6;
74880;PMS5003;63427;49.654;6.596;2022-10-23T06:21:36;7;7;
74880;PMS5003;63427;49.654;6.596;2022-10-23T06:24:01;7;7;
74880;PMS5003;63427;49.654;6.596;2022-10-23T06:26:27;6;6;
74880;PMS5003;63427;49.654;6.596;2022-10-23T06:28:52;7;7;
74880;PMS5003;63427;49.654;6.596;2022-10-23T06:31:17;5;5;
74880;PMS5003;63427;49.654;6.596;2022-10-23T06:33:43;4;4;
74880;PMS5003;63427;49.654;6.596;2022-10-23T06:36:08;7;6;
74880;PMS5003;63427;49.654;6.596;2022-10-23T06:38:33;3;3;
74880;PMS5003;63427;49.654;6.596;2022-10-23T06:40:59;3;3;
74880;PMS5003;63427;49.654;6.596;2022-10-23T06:43:24;5;5;
74880;PMS5003;63427;49.654;6.596;2022-10-23T06:45:50;6;6;
74880;PMS5003;63427;49.654;6.596;2022-10-23T06:48:15;6;6;
74880;PMS5003;63427;49.654;6.596;2022-10-23T06:50:41;5;5;
74880;PMS5003;63427;49.654;6.596;2022-10-23T06:53:06;5;5;
74880;PMS5003;63427;49.654;6.596;2022-10-23T06:55:31;4;4;
74880;PMS5003;63427;49.654;6.596;2022-10-23T06:57:57;5;5;
74880;PMS5003;63427;49.654;6.596;2022-10-23T07:00:22;6;6;
74880;PMS5003;63427;49.654;6.596;2022-10-23T07:02:48;4;4;
74880;PMS5003;63427;49.654;6.596;2022-10-23T07:05:13;5;5;
74880;PMS5003;63427;49.654;6.596;2022-10-23T07:07:38;5;5;
74880;PMS5003;63427;49.654;6.596;2022-10-23T07:10:04;4;4;
74880;PMS5003;63427;49.654;6.596;2022-10-23T07:12:29;5;5;
74880;PMS5003;63427;49.654;6.596;2022-10-23T07:14:54;4;3;
74880;PMS5003;63427;49.654;6.596;2022-10-23T07:17:20;4;4;
74880;PMS5003;63427;49.654;6.596;2022-10-23T07:19:45;4;4;
74880;PMS5003;63427;49.654;6.596;2022-10-23T07:22:11;4;4;
74880;PMS5003;63427;49.654;6.596;2022-10-23T07:24:36;4;4;
74880;PMS5003;63427;49.654;6.596;2022-10-23T07:27:02;4;4;
74880;PMS5003;63427;49.654;6.596;2022-10-23T07:29:27;4;4;
74880;PMS5003;63427;49.654;6.596;2022-10-23T07:31:52;5;5;
74880;PMS5003;63427;49.654;6.596;2022-10-23T07:34:18;3;3;
74880;PMS5003;63427;49.654;6.596;2022-10-23T07:36:43;4;4;
74880;PMS5003;63427;49.654;6.596;2022-10-23T07:39:09;3;3;
74880;PMS5003;63427;49.654;6.596;2022-10-23T07:41:34;4;4;
74880;PMS5003;63427;49.654;6.596;2022-10-23T07:43:59;4;4;
74880;PMS5003;63427;49.654;6.596;2022-10-23T07:46:25;7;7;
74880;PMS5003;63427;49.654;6.596;2022-10-23T07:48:50;4;4;
74880;PMS5003;63427;49.654;6.596;2022-10-23T07:51:15;6;6;
74880;PMS5003;63427;49.654;6.596;2022-10-23T07:53:41;6;6;
74880;PMS5003;63427;49.654;6.596;2022-10-23T07:56:10;9;8;
74880;PMS5003;63427;49.654;6.596;2022-10-23T07:58:31;8;8;
74880;PMS5003;63427;49.654;6.596;2022-10-23T08:00:57;10;10;
74880;PMS5003;63427;49.654;6.596;2022-10-23T08:03:22;8;8;
74880;PMS5003;63427;49.654;6.596;2022-10-23T08:05:48;9;9;
74880;PMS5003;63427;49.654;6.596;2022-10-23T08:08:13;7;6;
74880;PMS5003;63427;49.654;6.596;2022-10-23T08:10:38;9;9;
74880;PMS5003;63427;49.654;6.596;2022-10-23T08:13:04;9;8;
74880;PMS5003;63427;49.654;6.596;2022-10-23T08:15:29;6;6;
74880;PMS5003;63427;49.654;6.596;2022-10-23T08:17:54;8;8;
74880;PMS5003;63427;49.654;6.596;2022-10-23T08:20:20;9;9;
74880;PMS5003;63427;49.654;6.596;2022-10-23T08:22:45;8;8;
74880;PMS5003;63427;49.654;6.596;2022-10-23T08:25:10;6;6;
74880;PMS5003;63427;49.654;6.596;2022-10-23T08:27:36;7;7;
74880;PMS5003;63427;49.654;6.596;2022-10-23T08:30:01;7;7;
74880;PMS5003;63427;49.654;6.596;2022-10-23T08:32:27;7;7;
74880;PMS5003;63427;49.654;6.596;2022-10-23T08:34:52;9;8;
74880;PMS5003;63427;49.654;6.596;2022-10-23T08:37:17;8;8;
74880;PMS5003;63427;49.654;6.596;2022-10-23T08:39:43;10;9;
74880;PMS5003;63427;49.654;6.596;2022-10-23T08:44:35;12;12;
74880;PMS5003;63427;49.654;6.596;2022-10-23T08:47:01;7;7;
74880;PMS5003;63427;49.654;6.596;2022-10-23T08:49:28;7;7;
74880;PMS5003;63427;49.654;6.596;2022-10-23T08:51:51;8;8;
74880;PMS5003;63427;49.654;6.596;2022-10-23T08:54:16;10;10;
74880;PMS5003;63427;49.654;6.596;2022-10-23T08:56:41;8;8;
74880;PMS5003;63427;49.654;6.596;2022-10-23T08:59:10;13;12;
74880;PMS5003;63427;49.654;6.596;2022-10-23T09:01:33;13;12;
74880;PMS5003;63427;49.654;6.596;2022-10-23T09:03:57;13;12;
74880;PMS5003;63427;49.654;6.596;2022-10-23T09:06:25;8;8;
74880;PMS5003;63427;49.654;6.596;2022-10-23T09:08:50;9;9;
74880;PMS5003;63427;49.654;6.596;2022-10-23T09:11:15;10;10;
74880;PMS5003;63427;49.654;6.596;2022-10-23T09:16:06;10;9;
74880;PMS5003;63427;49.654;6.596;2022-10-23T09:18:29;8;8;
74880;PMS5003;63427;49.654;6.596;2022-10-23T09:20:54;11;11;
74880;PMS5003;63427;49.654;6.596;2022-10-23T09:23:20;8;8;
74880;PMS5003;63427;49.654;6.596;2022-10-23T09:25:45;7;7;
74880;PMS5003;63427;49.654;6.596;2022-10-23T09:28:12;9;8;
74880;PMS5003;63427;49.654;6.596;2022-10-23T09:30:35;7;7;
74880;PMS5003;63427;49.654;6.596;2022-10-23T09:33:11;8;8;
74880;PMS5003;63427;49.654;6.596;2022-10-23T09:35:27;9;8;
74880;PMS5003;63427;49.654;6.596;2022-10-23T09:37:51;7;6;
74880;PMS5003;63427;49.654;6.596;2022-10-23T09:40:17;13;13;
74880;PMS5003;63427;49.654;6.596;2022-10-23T09:42:51;13;13;
74880;PMS5003;63427;49.654;6.596;2022-10-23T09:47:32;13;13;
74880;PMS5003;63427;49.654;6.596;2022-10-23T09:49:58;16;16;
74880;PMS5003;63427;49.654;6.596;2022-10-23T09:52:24;9;9;
74880;PMS5003;63427;49.654;6.596;2022-10-23T09:54:49;9;9;
74880;PMS5003;63427;49.654;6.596;2022-10-23T09:57:18;10;9;
74880;PMS5003;63427;49.654;6.596;2022-10-23T09:59:38;9;8;
74880;PMS5003;63427;49.654;6.596;2022-10-23T10:04:31;10;10;
74880;PMS5003;63427;49.654;6.596;2022-10-23T10:06:55;7;7;
74880;PMS5003;63427;49.654;6.596;2022-10-23T10:09:19;8;8;
74880;PMS5003;63427;49.654;6.596;2022-10-23T10:11:45;8;8;
74880;PMS5003;63427;49.654;6.596;2022-10-23T10:16:38;8;8;
74880;PMS5003;63427;49.654;6.596;2022-10-23T10:19:02;5;5;
74880;PMS5003;63427;49.654;6.596;2022-10-23T10:21:26;11;11;
74880;PMS5003;63427;49.654;6.596;2022-10-23T10:23:52;19;18;
74880;PMS5003;63427;49.654;6.596;2022-10-23T10:26:20;9;9;
74880;PMS5003;63427;49.654;6.596;2022-10-23T10:28:49;8;7;
74880;PMS5003;63427;49.654;6.596;2022-10-23T10:31:09;9;9;
74880;PMS5003;63427;49.654;6.596;2022-10-23T10:33:34;7;7;
74880;PMS5003;63427;49.654;6.596;2022-10-23T10:35:58;6;6;
74880;PMS5003;63427;49.654;6.596;2022-10-23T10:38:28;7;7;
74880;PMS5003;63427;49.654;6.596;2022-10-23T10:40:49;6;6;
74880;PMS5003;63427;49.654;6.596;2022-10-23T10:43:16;7;7;
74880;PMS5003;63427;49.654;6.596;2022-10-23T10:45:38;7;7;
74880;PMS5003;63427;49.654;6.596;2022-10-23T10:48:09;6;6;
74880;PMS5003;63427;49.654;6.596;2022-10-23T10:50:30;7;6;
74880;PMS5003;63427;49.654;6.596;2022-10-23T10:52:56;4;3;
74880;PMS5003;63427;49.654;6.596;2022-10-23T10:55:23;3;3;
74880;PMS5003;63427;49.654;6.596;2022-10-23T10:57:47;7;6;
74880;PMS5003;63427;49.654;6.596;2022-10-23T11:00:13;4;4;
74880;PMS5003;63427;49.654;6.596;2022-10-23T11:02:39;5;5;
74880;PMS5003;63427;49.654;6.596;2022-10-23T11:05:08;5;4;
74880;PMS5003;63427;49.654;6.596;2022-10-23T11:07:32;7;6;
74880;PMS5003;63427;49.654;6.596;2022-10-23T11:09:55;5;5;
74880;PMS5003;63427;49.654;6.596;2022-10-23T11:12:22;6;5;
74880;PMS5003;63427;49.654;6.596;2022-10-23T11:14:47;3;2;
74880;PMS5003;63427;49.654;6.596;2022-10-23T11:17:13;4;4;
74880;PMS5003;63427;49.654;6.596;2022-10-23T11:19:39;6;5;
74880;PMS5003;63427;49.654;6.596;2022-10-23T11:22:05;5;5;
74880;PMS5003;63427;49.654;6.596;2022-10-23T11:24:39;5;4;
74880;PMS5003;63427;49.654;6.596;2022-10-23T11:26:58;4;4;
74880;PMS5003;63427;49.654;6.596;2022-10-23T11:29:28;5;5;
74880;PMS5003;63427;49.654;6.596;2022-10-23T11:31:51;5;5;
74880;PMS5003;63427;49.654;6.596;2022-10-23T11:34:18;4;4;
74880;PMS5003;63427;49.654;6.596;2022-10-23T11:36:40;7;7;
74880;PMS5003;63427;49.654;6.596;2022-10-23T11:39:06;5;4;
74880;PMS5003;63427;49.654;6.596;2022-10-23T11:41:29;5;5;
74880;PMS5003;63427;49.654;6.596;2022-10-23T11:43:55;5;5;
74880;PMS5003;63427;49.654;6.596;2022-10-23T11:46:30;5;5;
74880;PMS5003;63427;49.654;6.596;2022-10-23T11:48:46;5;5;
74880;PMS5003;63427;49.654;6.596;2022-10-23T11:53:38;4;4;
74880;PMS5003;63427;49.654;6.596;2022-10-23T11:56:04;6;5;
74880;PMS5003;63427;49.654;6.596;2022-10-23T12:00:56;5;4;
74880;PMS5003;63427;49.654;6.596;2022-10-23T12:03:21;4;4;
74880;PMS5003;63427;49.654;6.596;2022-10-23T12:05:46;3;3;
74880;PMS5003;63427;49.654;6.596;2022-10-23T12:10:42;5;5;
74880;PMS5003;63427;49.654;6.596;2022-10-23T12:13:04;6;6;
74880;PMS5003;63427;49.654;6.596;2022-10-23T12:15:29;6;5;
74880;PMS5003;63427;49.654;6.596;2022-10-23T12:17:55;5;5;
74880;PMS5003;63427;49.654;6.596;2022-10-23T12:20:23;5;5;
74880;PMS5003;63427;49.654;6.596;2022-10-23T12:22:47;6;6;
74880;PMS5003;63427;49.654;6.596;2022-10-23T12:25:12;6;5;
74880;PMS5003;63427;49.654;6.596;2022-10-23T12:27:38;5;5;
74880;PMS5003;63427;49.654;6.596;2022-10-23T12:32:32;6;6;
74880;PMS5003;63427;49.654;6.596;2022-10-23T12:35:01;5;5;
74880;PMS5003;63427;49.654;6.596;2022-10-23T12:37:25;6;5;
74880;PMS5003;63427;49.654;6.596;2022-10-23T12:39:50;6;6;
74880;PMS5003;63427;49.654;6.596;2022-10-23T12:42:14;6;6;
74880;PMS5003;63427;49.654;6.596;2022-10-23T12:44:37;7;6;
74880;PMS5003;63427;49.654;6.596;2022-10-23T12:47:03;4;4;
74880;PMS5003;63427;49.654;6.596;2022-10-23T12:49:29;7;6;
74880;PMS5003;63427;49.654;6.596;2022-10-23T12:51:55;7;6;
74880;PMS5003;63427;49.654;6.596;2022-10-23T12:54:20;5;5;
74880;PMS5003;63427;49.654;6.596;2022-10-23T12:56:45;6;6;
74880;PMS5003;63427;49.654;6.596;2022-10-23T12:59:13;7;6;
74880;PMS5003;63427;49.654;6.596;2022-10-23T13:01:36;5;5;
74880;PMS5003;63427;49.654;6.596;2022-10-23T13:04:04;6;5;
74880;PMS5003;63427;49.654;6.596;2022-10-23T13:06:28;7;4;
74880;PMS5003;63427;49.654;6.596;2022-10-23T13:08:54;7;7;
74880;PMS5003;63427;49.654;6.596;2022-10-23T13:11:19;6;6;
74880;PMS5003;63427;49.654;6.596;2022-10-23T13:13:45;6;6;
74880;PMS5003;63427;49.654;6.596;2022-10-23T13:16:12;5;4;
74880;PMS5003;63427;49.654;6.596;2022-10-23T13:18:39;7;5;
74880;PMS5003;63427;49.654;6.596;2022-10-23T13:21:02;5;5;
74880;PMS5003;63427;49.654;6.596;2022-10-23T13:23:28;6;5;
74880;PMS5003;63427;49.654;6.596;2022-10-23T13:25:54;5;4;
74880;PMS5003;63427;49.654;6.596;2022-10-23T13:28:20;7;6;
74880;PMS5003;63427;49.654;6.596;2022-10-23T13:30:45;6;6;
74880;PMS5003;63427;49.654;6.596;2022-10-23T13:33:17;6;5;
74880;PMS5003;63427;49.654;6.596;2022-10-23T13:35:36;6;5;
74880;PMS5003;63427;49.654;6.596;2022-10-23T13:38:06;5;5;
74880;PMS5003;63427;49.654;6.596;2022-10-23T13:40:27;7;6;
74880;PMS5003;63427;49.654;6.596;2022-10-23T13:42:54;6;5;
74880;PMS5003;63427;49.654;6.596;2022-10-23T13:45:19;6;5;
74880;PMS5003;63427;49.654;6.596;2022-10-23T13:47:44;6;6;
74880;PMS5003;63427;49.654;6.596;2022-10-23T13:50:10;6;6;
74880;PMS5003;63427;49.654;6.596;2022-10-23T13:52:36;6;6;
74880;PMS5003;63427;49.654;6.596;2022-10-23T13:55:01;7;7;
74880;PMS5003;63427;49.654;6.596;2022-10-23T13:57:27;8;6;
74880;PMS5003;63427;49.654;6.596;2022-10-23T13:59:53;7;5;
74880;PMS5003;63427;49.654;6.596;2022-10-23T14:02:20;6;4;
74880;PMS5003;63427;49.654;6.596;2022-10-23T14:04:44;8;7;
74880;PMS5003;63427;49.654;6.596;2022-10-23T14:07:10;6;6;
74880;PMS5003;63427;49.654;6.596;2022-10-23T14:09:36;8;6;
74880;PMS5003;63427;49.654;6.596;2022-10-23T14:12:01;8;7;
74880;PMS5003;63427;49.654;6.596;2022-10-23T14:14:26;8;7;
74880;PMS5003;63427;49.654;6.596;2022-10-23T14:16:52;9;7;
74880;PMS5003;63427;49.654;6.596;2022-10-23T14:19:18;6;5;
74880;PMS5003;63427;49.654;6.596;2022-10-23T14:21:44;9;7;
74880;PMS5003;63427;49.654;6.596;2022-10-23T14:24:09;7;7;
74880;PMS5003;63427;49.654;6.596;2022-10-23T14:26:34;9;8;
74880;PMS5003;63427;49.654;6.596;2022-10-23T14:29:00;6;6;
74880;PMS5003;63427;49.654;6.596;2022-10-23T14:31:26;7;7;
74880;PMS5003;63427;49.654;6.596;2022-10-23T14:33:53;8;8;
74880;PMS5003;63427;49.654;6.596;2022-10-23T14:36:17;9;7;
74880;PMS5003;63427;49.654;6.596;2022-10-23T14:38:43;12;9;
74880;PMS5003;63427;49.654;6.596;2022-10-23T14:41:09;7;7;
74880;PMS5003;63427;49.654;6.596;2022-10-23T14:43:35;8;7;
74880;PMS5003;63427;49.654;6.596;2022-10-23T14:46:07;8;8;
74880;PMS5003;63427;49.654;6.596;2022-10-23T14:48:26;8;8;
74880;PMS5003;63427;49.654;6.596;2022-10-23T14:50:51;6;6;
74880;PMS5003;63427;49.654;6.596;2022-10-23T14:53:17;6;6;
74880;PMS5003;63427;49.654;6.596;2022-10-23T14:55:43;9;8;
74880;PMS5003;63427;49.654;6.596;2022-10-23T14:58:08;8;7;
74880;PMS5003;63427;49.654;6.596;2022-10-23T15:00:34;8;7;
74880;PMS5003;63427;49.654;6.596;2022-10-23T15:02:59;9;8;
74880;PMS5003;63427;49.654;6.596;2022-10-23T15:05:25;10;7;
74880;PMS5003;63427;49.654;6.596;2022-10-23T15:07:51;11;10;
74880;PMS5003;63427;49.654;6.596;2022-10-23T15:10:16;7;7;
74880;PMS5003;63427;49.654;6.596;2022-10-23T15:12:41;9;8;
74880;PMS5003;63427;49.654;6.596;2022-10-23T15:15:08;10;9;
74880;PMS5003;63427;49.654;6.596;2022-10-23T15:17:33;9;8;
74880;PMS5003;63427;49.654;6.596;2022-10-23T15:19:58;8;8;
74880;PMS5003;63427;49.654;6.596;2022-10-23T15:22:25;10;9;
74880;PMS5003;63427;49.654;6.596;2022-10-23T15:24:50;10;10;
74880;PMS5003;63427;49.654;6.596;2022-10-23T15:27:16;12;9;
74880;PMS5003;63427;49.654;6.596;2022-10-23T15:29:41;9;8;
74880;PMS5003;63427;49.654;6.596;2022-10-23T15:32:07;7;7;
74880;PMS5003;63427;49.654;6.596;2022-10-23T15:34:32;9;8;
74880;PMS5003;63427;49.654;6.596;2022-10-23T15:36:58;9;7;
74880;PMS5003;63427;49.654;6.596;2022-10-23T15:39:23;10;10;
74880;PMS5003;63427;49.654;6.596;2022-10-23T15:41:48;10;7;
74880;PMS5003;63427;49.654;6.596;2022-10-23T15:44:13;8;8;
74880;PMS5003;63427;49.654;6.596;2022-10-23T15:46:38;11;11;
74880;PMS5003;63427;49.654;6.596;2022-10-23T15:49:03;15;13;
74880;PMS5003;63427;49.654;6.596;2022-10-23T15:51:29;9;9;
74880;PMS5003;63427;49.654;6.596;2022-10-23T15:53:54;10;10;
74880;PMS5003;63427;49.654;6.596;2022-10-23T15:56:19;10;10;
74880;PMS5003;63427;49.654;6.596;2022-10-23T15:58:44;11;11;
74880;PMS5003;63427;49.654;6.596;2022-10-23T16:01:09;8;8;
74880;PMS5003;63427;49.654;6.596;2022-10-23T16:03:36;10;10;
74880;PMS5003;63427;49.654;6.596;2022-10-23T16:06:02;9;9;
74880;PMS5003;63427;49.654;6.596;2022-10-23T16:08:24;14;13;
74880;PMS5003;63427;49.654;6.596;2022-10-23T16:10:50;11;11;
74880;PMS5003;63427;49.654;6.596;2022-10-23T16:13:15;13;13;
74880;PMS5003;63427;49.654;6.596;2022-10-23T16:15:40;12;12;
74880;PMS5003;63427;49.654;6.596;2022-10-23T16:18:05;10;9;
74880;PMS5003;63427;49.654;6.596;2022-10-23T16:20:30;10;10;
74880;PMS5003;63427;49.654;6.596;2022-10-23T16:22:55;11;11;
74880;PMS5003;63427;49.654;6.596;2022-10-23T16:25:20;16;14;
74880;PMS5003;63427;49.654;6.596;2022-10-23T16:27:46;16;12;
74880;PMS5003;63427;49.654;6.596;2022-10-23T16:30:11;12;11;
74880;PMS5003;63427;49.654;6.596;2022-10-23T16:32:36;7;7;
74880;PMS5003;63427;49.654;6.596;2022-10-23T16:35:02;8;7;
74880;PMS5003;63427;49.654;6.596;2022-10-23T16:37:27;5;4;
74880;PMS5003;63427;49.654;6.596;2022-10-23T16:39:53;8;8;
74880;PMS5003;63427;49.654;6.596;2022-10-23T16:42:18;4;4;
74880;PMS5003;63427;49.654;6.596;2022-10-23T16:44:43;4;4;
74880;PMS5003;63427;49.654;6.596;2022-10-23T16:47:08;4;4;
74880;PMS5003;63427;49.654;6.596;2022-10-23T16:49:33;7;7;
74880;PMS5003;63427;49.654;6.596;2022-10-23T16:51:58;6;6;
74880;PMS5003;63427;49.654;6.596;2022-10-23T16:54:24;6;6;
74880;PMS5003;63427;49.654;6.596;2022-10-23T16:56:49;8;6;
74880;PMS5003;63427;49.654;6.596;2022-10-23T16:59:14;6;6;